Карточка аэропорта UASS

Внимание!
Информация на этой странице в стадии наполнения.
Если вы не увидели какой-то информации, или заметили неточность - пожалуйста сообщите нам!
Спасибо!
Команда RU-STAFF
Название аэропортаСемей
Название аэропорта (англ.)Semey
Превышение764 ft. (232.9 m.)
Координаты50°21.018', 80°13.776'
Высота перехода10000ft
Эшелон переходаFL120, QNH<733:FL130
Коды ответчика7254-7257, 0674-0677
Зона ОрВДАлматы РПИ (UAAA)
Данные METARUASS 190230Z 27004MPS CAVOK 23/17 Q1001 NOSIG RMK QFE733/0977
Проноз погоды (TAF)UASS 190200Z 1903/1912 28005G10MPS 9999 SCT040CB BKN100 TEMPO 1903/1911 VRB18MPS 3100 -TSRA SQ BKN030CB
NOTAMshow/hide NOTAM
AWOS   TABLE

Информация о ВПП


Диспетчерские позиции




Спутниковое изображение